Terminal Aerodrome Forecast
Issued by NWS

Home | Current Version | Previous Version | Text Only | Print | Product List | Glossary On
Versions: 1 2 3 4 5 6 7 8 9 10 11 12 13 14 15 16 17 18 19 20 21 22 23 24 25 26 27 28
000
FTUS43 KLSX 031700
TAFUIN
TAF
KUIN 031720Z 0318/0418 22015G23KT 1SM BR OVC003
     FM032100 28012KT P6SM OVC015
     FM040300 34015KT P6SM OVC015
     FM041000 34015KT P6SM SCT015 BKN120=

USA.gov is the U.S. government's official web portal to all federal, state and local government web resources and services.